Terminal Aerodrome Forecast
Issued by NWS

Home | Current Version | Previous Version | Graphics & Text | Print | Product List | Glossary On
Versions: 1 2 3 4 5 6 7 8 9 10 11 12 13
000
FTUS45 KGGW 221723 AAB
TAFSDY
TAF AMD
KSDY 221723Z 2217/2318 28018G25KT P6SM FEW130
     FM222200 30025G34KT P6SM VCSH BKN090
     FM230600 31018KT P6SM VCSH BKN035
     FM230800 31014KT P6SM BKN030
     FM230900 31013G21KT P6SM SCT045=

USA.gov is the U.S. government's official web portal to all federal, state and local government web resources and services.